Terminal Aerodrome Forecast
Issued by NWS

Home | Current Version | Previous Version | Graphics & Text | Print | Product List | Glossary On
Versions: 1 2 3 4 5 6 7 8 9 10 11 12 13 14 15 16 17
000
FTUS43 KMPX 191120
TAFAXN
TAF
KAXN 191120Z 1912/2012 12004KT P6SM SKC
     FM191400 13008KT P6SM SCT250
     FM191900 14011G17KT P6SM SCT100 BKN250
     FM192200 13011KT P6SM VCTS BKN050CB OVC100
      TEMPO 1922/2002 3SM -TSRA BKN030CB
     FM200200 10007KT P6SM VCSH SCT050 BKN090
     FM200500 04005KT P6SM SCT250
     FM200800 04003KT 5SM BR SKC=

USA.gov is the U.S. government's official web portal to all federal, state and local government web resources and services.